sensor_id;sensor_type;location;lat;lon;timestamp;P1;durP1;ratioP1;P2;durP2;ratioP2
21697;SDS011;11010;49.548;11.926;2024-03-17T00:00:34;5.37;;;1.00;;
21697;SDS011;11010;49.548;11.926;2024-03-17T00:03:01;3.40;;;0.90;;
21697;SDS011;11010;49.548;11.926;2024-03-17T00:05:27;4.33;;;1.10;;
21697;SDS011;11010;49.548;11.926;2024-03-17T00:07:54;5.03;;;0.90;;
21697;SDS011;11010;49.548;11.926;2024-03-17T00:10:20;2.03;;;0.70;;
21697;SDS011;11010;49.548;11.926;2024-03-17T00:12:46;3.20;;;0.90;;
21697;SDS011;11010;49.548;11.926;2024-03-17T00:15:12;3.67;;;0.80;;
21697;SDS011;11010;49.548;11.926;2024-03-17T00:17:40;2.63;;;1.00;;
21697;SDS011;11010;49.548;11.926;2024-03-17T00:20:06;4.13;;;1.00;;
21697;SDS011;11010;49.548;11.926;2024-03-17T00:22:47;2.97;;;0.90;;
21697;SDS011;11010;49.548;11.926;2024-03-17T00:25:14;2.63;;;0.90;;
21697;SDS011;11010;49.548;11.926;2024-03-17T00:27:41;4.30;;;0.90;;
21697;SDS011;11010;49.548;11.926;2024-03-17T00:30:09;3.00;;;0.90;;
21697;SDS011;11010;49.548;11.926;2024-03-17T00:32:38;2.57;;;0.87;;
21697;SDS011;11010;49.548;11.926;2024-03-17T00:35:06;2.80;;;0.90;;
21697;SDS011;11010;49.548;11.926;2024-03-17T00:37:33;3.23;;;1.00;;
21697;SDS011;11010;49.548;11.926;2024-03-17T00:40:02;3.07;;;0.90;;
21697;SDS011;11010;49.548;11.926;2024-03-17T00:42:29;3.53;;;0.90;;
21697;SDS011;11010;49.548;11.926;2024-03-17T00:44:56;3.93;;;0.90;;
21697;SDS011;11010;49.548;11.926;2024-03-17T00:47:22;3.23;;;0.90;;
21697;SDS011;11010;49.548;11.926;2024-03-17T00:49:48;3.10;;;1.00;;
21697;SDS011;11010;49.548;11.926;2024-03-17T00:52:16;3.00;;;0.80;;
21697;SDS011;11010;49.548;11.926;2024-03-17T00:54:43;2.40;;;0.80;;
21697;SDS011;11010;49.548;11.926;2024-03-17T00:57:13;2.73;;;0.90;;
21697;SDS011;11010;49.548;11.926;2024-03-17T00:59:41;3.23;;;1.00;;
21697;SDS011;11010;49.548;11.926;2024-03-17T01:02:11;5.20;;;1.00;;
21697;SDS011;11010;49.548;11.926;2024-03-17T01:04:41;4.10;;;0.97;;
21697;SDS011;11010;49.548;11.926;2024-03-17T01:07:12;4.90;;;1.00;;
21697;SDS011;11010;49.548;11.926;2024-03-17T01:09:38;4.10;;;1.10;;
21697;SDS011;11010;49.548;11.926;2024-03-17T01:12:04;3.70;;;1.00;;
21697;SDS011;11010;49.548;11.926;2024-03-17T01:14:34;3.63;;;1.03;;
21697;SDS011;11010;49.548;11.926;2024-03-17T01:17:01;5.03;;;0.97;;
21697;SDS011;11010;49.548;11.926;2024-03-17T01:19:30;4.07;;;1.00;;
21697;SDS011;11010;49.548;11.926;2024-03-17T01:21:57;2.93;;;0.90;;
21697;SDS011;11010;49.548;11.926;2024-03-17T01:24:25;2.97;;;1.00;;
21697;SDS011;11010;49.548;11.926;2024-03-17T01:26:57;2.77;;;0.90;;
21697;SDS011;11010;49.548;11.926;2024-03-17T01:29:24;2.80;;;0.90;;
21697;SDS011;11010;49.548;11.926;2024-03-17T01:31:51;2.57;;;0.80;;
21697;SDS011;11010;49.548;11.926;2024-03-17T01:34:20;4.20;;;0.90;;
21697;SDS011;11010;49.548;11.926;2024-03-17T01:36:47;5.63;;;0.97;;
21697;SDS011;11010;49.548;11.926;2024-03-17T01:39:13;4.17;;;1.10;;
21697;SDS011;11010;49.548;11.926;2024-03-17T01:41:41;4.40;;;0.90;;
21697;SDS011;11010;49.548;11.926;2024-03-17T01:44:07;3.57;;;0.90;;
21697;SDS011;11010;49.548;11.926;2024-03-17T01:46:47;4.57;;;1.00;;
21697;SDS011;11010;49.548;11.926;2024-03-17T01:49:13;5.30;;;1.20;;
21697;SDS011;11010;49.548;11.926;2024-03-17T01:51:40;2.97;;;1.00;;
21697;SDS011;11010;49.548;11.926;2024-03-17T01:54:06;3.87;;;0.90;;
21697;SDS011;11010;49.548;11.926;2024-03-17T01:56:34;3.83;;;1.10;;
21697;SDS011;11010;49.548;11.926;2024-03-17T01:59:00;3.63;;;1.00;;
21697;SDS011;11010;49.548;11.926;2024-03-17T02:01:27;3.27;;;0.90;;
21697;SDS011;11010;49.548;11.926;2024-03-17T02:03:53;3.33;;;1.10;;
21697;SDS011;11010;49.548;11.926;2024-03-17T02:06:20;4.43;;;1.00;;
21697;SDS011;11010;49.548;11.926;2024-03-17T02:08:47;3.37;;;1.00;;
21697;SDS011;11010;49.548;11.926;2024-03-17T02:11:47;3.77;;;1.00;;
21697;SDS011;11010;49.548;11.926;2024-03-17T02:17:53;4.77;;;1.20;;
21697;SDS011;11010;49.548;11.926;2024-03-17T02:20:19;4.30;;;1.03;;
21697;SDS011;11010;49.548;11.926;2024-03-17T02:22:47;3.90;;;1.00;;
21697;SDS011;11010;49.548;11.926;2024-03-17T02:25:14;4.07;;;1.07;;
21697;SDS011;11010;49.548;11.926;2024-03-17T02:27:40;3.67;;;0.93;;
21697;SDS011;11010;49.548;11.926;2024-03-17T02:30:06;5.27;;;1.10;;
21697;SDS011;11010;49.548;11.926;2024-03-17T02:32:35;3.07;;;0.93;;
21697;SDS011;11010;49.548;11.926;2024-03-17T02:35:01;3.83;;;0.90;;
21697;SDS011;11010;49.548;11.926;2024-03-17T02:37:30;7.80;;;2.37;;
21697;SDS011;11010;49.548;11.926;2024-03-17T02:39:56;6.07;;;1.70;;
21697;SDS011;11010;49.548;11.926;2024-03-17T02:42:23;6.93;;;1.70;;
21697;SDS011;11010;49.548;11.926;2024-03-17T02:44:49;4.60;;;1.20;;
21697;SDS011;11010;49.548;11.926;2024-03-17T02:47:16;7.23;;;1.20;;
21697;SDS011;11010;49.548;11.926;2024-03-17T02:49:42;4.73;;;1.20;;
21697;SDS011;11010;49.548;11.926;2024-03-17T02:52:15;5.63;;;1.20;;
21697;SDS011;11010;49.548;11.926;2024-03-17T02:54:41;4.27;;;1.13;;
21697;SDS011;11010;49.548;11.926;2024-03-17T02:57:07;4.83;;;1.20;;
21697;SDS011;11010;49.548;11.926;2024-03-17T02:59:34;5.17;;;1.20;;
21697;SDS011;11010;49.548;11.926;2024-03-17T03:02:00;6.20;;;1.43;;
21697;SDS011;11010;49.548;11.926;2024-03-17T03:04:27;5.67;;;1.30;;
21697;SDS011;11010;49.548;11.926;2024-03-17T03:06:53;6.57;;;1.73;;
21697;SDS011;11010;49.548;11.926;2024-03-17T03:09:19;6.27;;;1.40;;
21697;SDS011;11010;49.548;11.926;2024-03-17T03:11:51;5.60;;;1.20;;
21697;SDS011;11010;49.548;11.926;2024-03-17T03:14:18;5.87;;;1.40;;
21697;SDS011;11010;49.548;11.926;2024-03-17T03:16:45;3.83;;;1.13;;
21697;SDS011;11010;49.548;11.926;2024-03-17T03:19:11;3.70;;;1.00;;
21697;SDS011;11010;49.548;11.926;2024-03-17T03:21:37;3.77;;;0.87;;
21697;SDS011;11010;49.548;11.926;2024-03-17T03:24:03;5.10;;;1.30;;
21697;SDS011;11010;49.548;11.926;2024-03-17T03:26:30;5.37;;;1.00;;
21697;SDS011;11010;49.548;11.926;2024-03-17T03:28:56;3.83;;;0.90;;
21697;SDS011;11010;49.548;11.926;2024-03-17T03:31:22;4.27;;;1.10;;
21697;SDS011;11010;49.548;11.926;2024-03-17T03:33:48;3.57;;;1.10;;
21697;SDS011;11010;49.548;11.926;2024-03-17T03:36:15;5.33;;;1.10;;
21697;SDS011;11010;49.548;11.926;2024-03-17T03:38:44;3.93;;;1.00;;
21697;SDS011;11010;49.548;11.926;2024-03-17T03:41:13;4.07;;;1.00;;
21697;SDS011;11010;49.548;11.926;2024-03-17T03:43:40;4.10;;;1.07;;
21697;SDS011;11010;49.548;11.926;2024-03-17T03:46:07;4.33;;;1.10;;
21697;SDS011;11010;49.548;11.926;2024-03-17T03:48:33;3.47;;;1.10;;
21697;SDS011;11010;49.548;11.926;2024-03-17T03:51:06;3.53;;;1.00;;
21697;SDS011;11010;49.548;11.926;2024-03-17T03:53:33;4.13;;;1.10;;
21697;SDS011;11010;49.548;11.926;2024-03-17T03:56:00;6.07;;;1.17;;
21697;SDS011;11010;49.548;11.926;2024-03-17T03:58:35;5.00;;;1.10;;
21697;SDS011;11010;49.548;11.926;2024-03-17T04:01:06;4.07;;;1.03;;
21697;SDS011;11010;49.548;11.926;2024-03-17T04:03:36;6.20;;;1.40;;
21697;SDS011;11010;49.548;11.926;2024-03-17T04:06:06;4.10;;;1.07;;
21697;SDS011;11010;49.548;11.926;2024-03-17T04:08:35;4.37;;;1.10;;
21697;SDS011;11010;49.548;11.926;2024-03-17T04:11:02;3.17;;;1.00;;
21697;SDS011;11010;49.548;11.926;2024-03-17T04:13:29;3.57;;;1.00;;
21697;SDS011;11010;49.548;11.926;2024-03-17T04:18:57;3.57;;;1.00;;
21697;SDS011;11010;49.548;11.926;2024-03-17T04:21:23;6.07;;;1.30;;
21697;SDS011;11010;49.548;11.926;2024-03-17T04:23:49;3.73;;;1.00;;
21697;SDS011;11010;49.548;11.926;2024-03-17T04:26:15;4.70;;;1.07;;
21697;SDS011;11010;49.548;11.926;2024-03-17T04:28:42;5.50;;;1.10;;
21697;SDS011;11010;49.548;11.926;2024-03-17T04:31:08;5.03;;;1.10;;
21697;SDS011;11010;49.548;11.926;2024-03-17T04:33:37;5.07;;;1.10;;
21697;SDS011;11010;49.548;11.926;2024-03-17T04:36:03;3.90;;;1.13;;
21697;SDS011;11010;49.548;11.926;2024-03-17T04:38:29;3.67;;;1.00;;
21697;SDS011;11010;49.548;11.926;2024-03-17T04:40:56;3.40;;;1.07;;
21697;SDS011;11010;49.548;11.926;2024-03-17T04:43:32;3.27;;;1.00;;
21697;SDS011;11010;49.548;11.926;2024-03-17T04:45:59;6.97;;;1.47;;
21697;SDS011;11010;49.548;11.926;2024-03-17T04:48:26;3.47;;;1.00;;
21697;SDS011;11010;49.548;11.926;2024-03-17T04:50:53;4.90;;;1.10;;
21697;SDS011;11010;49.548;11.926;2024-03-17T04:53:19;4.97;;;1.17;;
21697;SDS011;11010;49.548;11.926;2024-03-17T04:55:45;4.60;;;1.10;;
21697;SDS011;11010;49.548;11.926;2024-03-17T04:58:12;3.77;;;1.10;;
21697;SDS011;11010;49.548;11.926;2024-03-17T05:00:38;4.13;;;1.10;;
21697;SDS011;11010;49.548;11.926;2024-03-17T05:03:04;5.17;;;1.10;;
21697;SDS011;11010;49.548;11.926;2024-03-17T05:05:30;4.33;;;1.10;;
21697;SDS011;11010;49.548;11.926;2024-03-17T05:07:56;5.10;;;1.30;;
21697;SDS011;11010;49.548;11.926;2024-03-17T05:10:23;5.03;;;1.10;;
21697;SDS011;11010;49.548;11.926;2024-03-17T05:12:49;3.60;;;1.00;;
21697;SDS011;11010;49.548;11.926;2024-03-17T05:15:15;4.50;;;1.10;;
21697;SDS011;11010;49.548;11.926;2024-03-17T05:17:41;5.40;;;1.10;;
21697;SDS011;11010;49.548;11.926;2024-03-17T05:20:08;4.90;;;1.10;;
21697;SDS011;11010;49.548;11.926;2024-03-17T05:22:35;5.43;;;1.10;;
21697;SDS011;11010;49.548;11.926;2024-03-17T05:25:02;4.57;;;1.20;;
21697;SDS011;11010;49.548;11.926;2024-03-17T05:27:28;6.63;;;1.40;;
21697;SDS011;11010;49.548;11.926;2024-03-17T05:29:54;4.77;;;1.20;;
21697;SDS011;11010;49.548;11.926;2024-03-17T05:32:20;3.83;;;1.10;;
21697;SDS011;11010;49.548;11.926;2024-03-17T05:34:46;4.80;;;1.10;;
21697;SDS011;11010;49.548;11.926;2024-03-17T05:37:13;4.30;;;1.10;;
21697;SDS011;11010;49.548;11.926;2024-03-17T05:39:39;4.33;;;1.20;;
21697;SDS011;11010;49.548;11.926;2024-03-17T05:42:05;4.43;;;1.10;;
21697;SDS011;11010;49.548;11.926;2024-03-17T05:44:32;5.37;;;1.20;;
21697;SDS011;11010;49.548;11.926;2024-03-17T05:47:18;4.40;;;1.10;;
21697;SDS011;11010;49.548;11.926;2024-03-17T05:49:45;3.83;;;1.13;;
21697;SDS011;11010;49.548;11.926;2024-03-17T05:52:11;4.90;;;1.43;;
21697;SDS011;11010;49.548;11.926;2024-03-17T05:54:38;4.23;;;1.10;;
21697;SDS011;11010;49.548;11.926;2024-03-17T05:57:04;4.50;;;1.20;;
21697;SDS011;11010;49.548;11.926;2024-03-17T05:59:30;6.13;;;1.30;;
21697;SDS011;11010;49.548;11.926;2024-03-17T06:01:57;5.20;;;1.20;;
21697;SDS011;11010;49.548;11.926;2024-03-17T06:04:23;5.57;;;1.37;;
21697;SDS011;11010;49.548;11.926;2024-03-17T06:06:49;4.40;;;1.20;;
21697;SDS011;11010;49.548;11.926;2024-03-17T06:09:15;4.27;;;1.13;;
21697;SDS011;11010;49.548;11.926;2024-03-17T06:11:45;5.37;;;1.20;;
21697;SDS011;11010;49.548;11.926;2024-03-17T06:14:12;4.43;;;1.20;;
21697;SDS011;11010;49.548;11.926;2024-03-17T06:16:39;5.37;;;1.10;;
21697;SDS011;11010;49.548;11.926;2024-03-17T06:19:05;4.97;;;1.30;;
21697;SDS011;11010;49.548;11.926;2024-03-17T06:21:32;6.17;;;1.50;;
21697;SDS011;11010;49.548;11.926;2024-03-17T06:23:59;5.07;;;1.33;;
21697;SDS011;11010;49.548;11.926;2024-03-17T06:26:25;7.37;;;1.40;;
21697;SDS011;11010;49.548;11.926;2024-03-17T06:28:52;5.27;;;1.37;;
21697;SDS011;11010;49.548;11.926;2024-03-17T06:31:18;5.63;;;1.30;;
21697;SDS011;11010;49.548;11.926;2024-03-17T06:33:45;5.67;;;1.37;;
21697;SDS011;11010;49.548;11.926;2024-03-17T06:36:11;5.20;;;1.40;;
21697;SDS011;11010;49.548;11.926;2024-03-17T06:38:37;5.70;;;1.50;;
21697;SDS011;11010;49.548;11.926;2024-03-17T06:41:04;5.63;;;1.63;;
21697;SDS011;11010;49.548;11.926;2024-03-17T06:43:30;7.07;;;2.00;;
21697;SDS011;11010;49.548;11.926;2024-03-17T06:45:58;5.53;;;1.83;;
21697;SDS011;11010;49.548;11.926;2024-03-17T06:48:25;5.30;;;1.57;;
21697;SDS011;11010;49.548;11.926;2024-03-17T06:50:53;6.10;;;1.50;;
21697;SDS011;11010;49.548;11.926;2024-03-17T06:53:23;6.63;;;1.70;;
21697;SDS011;11010;49.548;11.926;2024-03-17T06:55:52;5.87;;;1.60;;
21697;SDS011;11010;49.548;11.926;2024-03-17T06:58:22;7.47;;;1.80;;
21697;SDS011;11010;49.548;11.926;2024-03-17T07:00:59;5.10;;;1.53;;
21697;SDS011;11010;49.548;11.926;2024-03-17T07:03:30;6.90;;;1.70;;
21697;SDS011;11010;49.548;11.926;2024-03-17T07:06:01;5.20;;;1.53;;
21697;SDS011;11010;49.548;11.926;2024-03-17T07:08:29;6.37;;;1.50;;
21697;SDS011;11010;49.548;11.926;2024-03-17T07:11:00;7.97;;;1.80;;
21697;SDS011;11010;49.548;11.926;2024-03-17T07:13:32;6.20;;;1.53;;
21697;SDS011;11010;49.548;11.926;2024-03-17T07:16:00;5.93;;;1.70;;
21697;SDS011;11010;49.548;11.926;2024-03-17T07:18:27;6.40;;;1.73;;
21697;SDS011;11010;49.548;11.926;2024-03-17T07:20:58;5.30;;;1.60;;
21697;SDS011;11010;49.548;11.926;2024-03-17T07:23:25;7.73;;;1.87;;
21697;SDS011;11010;49.548;11.926;2024-03-17T07:25:55;6.70;;;1.60;;
21697;SDS011;11010;49.548;11.926;2024-03-17T07:28:22;6.03;;;1.57;;
21697;SDS011;11010;49.548;11.926;2024-03-17T07:30:49;6.40;;;1.57;;
21697;SDS011;11010;49.548;11.926;2024-03-17T07:33:17;5.93;;;1.50;;
21697;SDS011;11010;49.548;11.926;2024-03-17T07:38:22;5.37;;;1.77;;
21697;SDS011;11010;49.548;11.926;2024-03-17T07:41:02;7.30;;;2.00;;
21697;SDS011;11010;49.548;11.926;2024-03-17T07:43:37;6.27;;;2.00;;
21697;SDS011;11010;49.548;11.926;2024-03-17T07:46:04;7.50;;;2.20;;
21697;SDS011;11010;49.548;11.926;2024-03-17T07:48:38;8.07;;;2.10;;
21697;SDS011;11010;49.548;11.926;2024-03-17T07:51:06;7.90;;;1.90;;
21697;SDS011;11010;49.548;11.926;2024-03-17T07:53:43;7.60;;;2.10;;
21697;SDS011;11010;49.548;11.926;2024-03-17T07:56:13;7.73;;;1.60;;
21697;SDS011;11010;49.548;11.926;2024-03-17T07:58:41;7.10;;;1.97;;
21697;SDS011;11010;49.548;11.926;2024-03-17T08:01:09;6.93;;;1.90;;
21697;SDS011;11010;49.548;11.926;2024-03-17T08:03:37;6.90;;;1.87;;
21697;SDS011;11010;49.548;11.926;2024-03-17T08:06:05;6.93;;;1.70;;
21697;SDS011;11010;49.548;11.926;2024-03-17T08:08:32;7.33;;;1.90;;
21697;SDS011;11010;49.548;11.926;2024-03-17T08:10:59;6.13;;;1.63;;
21697;SDS011;11010;49.548;11.926;2024-03-17T08:13:29;6.10;;;1.67;;
21697;SDS011;11010;49.548;11.926;2024-03-17T08:16:03;6.83;;;2.00;;
21697;SDS011;11010;49.548;11.926;2024-03-17T08:18:37;6.70;;;1.67;;
21697;SDS011;11010;49.548;11.926;2024-03-17T08:21:03;8.40;;;1.80;;
21697;SDS011;11010;49.548;11.926;2024-03-17T08:23:34;6.30;;;1.73;;
21697;SDS011;11010;49.548;11.926;2024-03-17T08:26:04;7.30;;;1.80;;
21697;SDS011;11010;49.548;11.926;2024-03-17T08:28:31;7.20;;;1.97;;
21697;SDS011;11010;49.548;11.926;2024-03-17T08:30:58;7.53;;;2.13;;
21697;SDS011;11010;49.548;11.926;2024-03-17T08:33:25;7.40;;;2.00;;
21697;SDS011;11010;49.548;11.926;2024-03-17T08:36:05;7.43;;;1.90;;
21697;SDS011;11010;49.548;11.926;2024-03-17T08:38:36;7.13;;;2.10;;
21697;SDS011;11010;49.548;11.926;2024-03-17T08:41:03;6.80;;;1.67;;
21697;SDS011;11010;49.548;11.926;2024-03-17T08:43:31;6.40;;;1.80;;
21697;SDS011;11010;49.548;11.926;2024-03-17T08:45:58;7.50;;;1.90;;
21697;SDS011;11010;49.548;11.926;2024-03-17T08:48:28;8.67;;;1.90;;
21697;SDS011;11010;49.548;11.926;2024-03-17T08:50:56;6.60;;;1.87;;
21697;SDS011;11010;49.548;11.926;2024-03-17T08:53:23;7.47;;;2.10;;
21697;SDS011;11010;49.548;11.926;2024-03-17T08:55:52;5.77;;;1.60;;
21697;SDS011;11010;49.548;11.926;2024-03-17T08:58:18;6.43;;;1.80;;
21697;SDS011;11010;49.548;11.926;2024-03-17T09:00:45;8.20;;;2.03;;
21697;SDS011;11010;49.548;11.926;2024-03-17T09:03:12;6.53;;;1.90;;
21697;SDS011;11010;49.548;11.926;2024-03-17T09:05:38;7.50;;;2.00;;
21697;SDS011;11010;49.548;11.926;2024-03-17T09:08:16;7.77;;;1.87;;
21697;SDS011;11010;49.548;11.926;2024-03-17T09:10:47;7.80;;;2.00;;
21697;SDS011;11010;49.548;11.926;2024-03-17T09:13:16;7.13;;;1.90;;
21697;SDS011;11010;49.548;11.926;2024-03-17T09:15:50;8.63;;;2.20;;
21697;SDS011;11010;49.548;11.926;2024-03-17T09:18:22;6.67;;;1.80;;
21697;SDS011;11010;49.548;11.926;2024-03-17T09:20:58;8.23;;;1.90;;
21697;SDS011;11010;49.548;11.926;2024-03-17T09:23:26;7.47;;;2.13;;
21697;SDS011;11010;49.548;11.926;2024-03-17T09:26:00;7.30;;;2.00;;
21697;SDS011;11010;49.548;11.926;2024-03-17T09:28:32;7.37;;;1.87;;
21697;SDS011;11010;49.548;11.926;2024-03-17T09:30:58;7.93;;;2.13;;
21697;SDS011;11010;49.548;11.926;2024-03-17T09:33:25;7.30;;;2.20;;
21697;SDS011;11010;49.548;11.926;2024-03-17T09:35:56;8.33;;;2.00;;
21697;SDS011;11010;49.548;11.926;2024-03-17T09:38:32;6.70;;;1.90;;
21697;SDS011;11010;49.548;11.926;2024-03-17T09:40:59;6.80;;;2.00;;
21697;SDS011;11010;49.548;11.926;2024-03-17T09:43:27;7.53;;;1.83;;
21697;SDS011;11010;49.548;11.926;2024-03-17T09:45:54;9.37;;;2.20;;
21697;SDS011;11010;49.548;11.926;2024-03-17T09:48:26;7.47;;;1.90;;
21697;SDS011;11010;49.548;11.926;2024-03-17T09:50:55;8.07;;;2.10;;
21697;SDS011;11010;49.548;11.926;2024-03-17T09:53:25;8.17;;;2.23;;
21697;SDS011;11010;49.548;11.926;2024-03-17T09:55:57;6.90;;;1.83;;
21697;SDS011;11010;49.548;11.926;2024-03-17T09:58:28;7.40;;;2.20;;
21697;SDS011;11010;49.548;11.926;2024-03-17T10:00:55;8.33;;;2.43;;
21697;SDS011;11010;49.548;11.926;2024-03-17T10:06:07;7.60;;;2.30;;
21697;SDS011;11010;49.548;11.926;2024-03-17T10:08:39;8.23;;;2.37;;
21697;SDS011;11010;49.548;11.926;2024-03-17T10:11:20;8.47;;;2.60;;
21697;SDS011;11010;49.548;11.926;2024-03-17T10:14:10;8.37;;;2.47;;
21697;SDS011;11010;49.548;11.926;2024-03-17T10:16:36;8.50;;;2.00;;
21697;SDS011;11010;49.548;11.926;2024-03-17T10:19:20;7.63;;;2.17;;
21697;SDS011;11010;49.548;11.926;2024-03-17T10:21:57;7.83;;;2.17;;
21697;SDS011;11010;49.548;11.926;2024-03-17T10:24:26;6.97;;;2.10;;
21697;SDS011;11010;49.548;11.926;2024-03-17T10:26:57;8.27;;;2.40;;
21697;SDS011;11010;49.548;11.926;2024-03-17T10:32:01;8.43;;;2.17;;
21697;SDS011;11010;49.548;11.926;2024-03-17T10:34:29;8.43;;;2.47;;
21697;SDS011;11010;49.548;11.926;2024-03-17T10:39:40;7.60;;;2.40;;
21697;SDS011;11010;49.548;11.926;2024-03-17T10:42:09;8.43;;;2.37;;
21697;SDS011;11010;49.548;11.926;2024-03-17T10:44:37;7.87;;;2.53;;
21697;SDS011;11010;49.548;11.926;2024-03-17T10:47:05;8.13;;;2.40;;
21697;SDS011;11010;49.548;11.926;2024-03-17T10:49:38;8.20;;;2.43;;
21697;SDS011;11010;49.548;11.926;2024-03-17T10:52:05;6.83;;;2.37;;
21697;SDS011;11010;49.548;11.926;2024-03-17T10:54:34;9.60;;;2.30;;
21697;SDS011;11010;49.548;11.926;2024-03-17T11:00:04;8.27;;;2.30;;
21697;SDS011;11010;49.548;11.926;2024-03-17T11:02:34;8.57;;;2.50;;
21697;SDS011;11010;49.548;11.926;2024-03-17T11:05:05;8.03;;;2.40;;
21697;SDS011;11010;49.548;11.926;2024-03-17T11:07:39;8.00;;;2.57;;
21697;SDS011;11010;49.548;11.926;2024-03-17T11:10:18;7.23;;;2.30;;
21697;SDS011;11010;49.548;11.926;2024-03-17T11:20:40;7.20;;;2.10;;
21697;SDS011;11010;49.548;11.926;2024-03-17T11:23:26;8.37;;;2.53;;
21697;SDS011;11010;49.548;11.926;2024-03-17T11:25:54;6.67;;;2.30;;
21697;SDS011;11010;49.548;11.926;2024-03-17T11:34:28;8.83;;;2.40;;
21697;SDS011;11010;49.548;11.926;2024-03-17T11:36:59;10.47;;;3.60;;
21697;SDS011;11010;49.548;11.926;2024-03-17T11:42:24;8.27;;;2.37;;
21697;SDS011;11010;49.548;11.926;2024-03-17T11:44:56;8.20;;;2.40;;
21697;SDS011;11010;49.548;11.926;2024-03-17T11:47:41;7.50;;;2.20;;
21697;SDS011;11010;49.548;11.926;2024-03-17T11:50:09;8.37;;;2.30;;
21697;SDS011;11010;49.548;11.926;2024-03-17T11:52:36;7.13;;;2.30;;
21697;SDS011;11010;49.548;11.926;2024-03-17T11:55:06;6.83;;;2.20;;
21697;SDS011;11010;49.548;11.926;2024-03-17T11:57:41;8.20;;;2.57;;
21697;SDS011;11010;49.548;11.926;2024-03-17T12:00:24;7.97;;;2.40;;
21697;SDS011;11010;49.548;11.926;2024-03-17T12:02:51;8.33;;;2.60;;
21697;SDS011;11010;49.548;11.926;2024-03-17T12:05:17;8.50;;;2.47;;
21697;SDS011;11010;49.548;11.926;2024-03-17T12:07:44;6.37;;;1.97;;
21697;SDS011;11010;49.548;11.926;2024-03-17T12:10:10;8.90;;;2.27;;
21697;SDS011;11010;49.548;11.926;2024-03-17T12:12:39;7.23;;;2.30;;
21697;SDS011;11010;49.548;11.926;2024-03-17T12:15:18;8.27;;;2.70;;
21697;SDS011;11010;49.548;11.926;2024-03-17T12:17:45;7.50;;;2.23;;
21697;SDS011;11010;49.548;11.926;2024-03-17T12:20:18;9.30;;;2.13;;
21697;SDS011;11010;49.548;11.926;2024-03-17T12:22:46;7.67;;;2.33;;
21697;SDS011;11010;49.548;11.926;2024-03-17T12:25:16;8.33;;;2.03;;
21697;SDS011;11010;49.548;11.926;2024-03-17T12:27:45;7.30;;;2.30;;
21697;SDS011;11010;49.548;11.926;2024-03-17T12:30:14;7.73;;;2.17;;
21697;SDS011;11010;49.548;11.926;2024-03-17T12:32:41;8.97;;;2.30;;
21697;SDS011;11010;49.548;11.926;2024-03-17T12:35:12;7.07;;;2.20;;
21697;SDS011;11010;49.548;11.926;2024-03-17T12:37:42;7.47;;;2.40;;
21697;SDS011;11010;49.548;11.926;2024-03-17T12:40:19;7.17;;;2.20;;
21697;SDS011;11010;49.548;11.926;2024-03-17T12:42:50;7.93;;;2.47;;
21697;SDS011;11010;49.548;11.926;2024-03-17T12:45:20;7.70;;;2.33;;
21697;SDS011;11010;49.548;11.926;2024-03-17T12:47:48;7.90;;;2.47;;
21697;SDS011;11010;49.548;11.926;2024-03-17T12:50:16;6.50;;;1.93;;
21697;SDS011;11010;49.548;11.926;2024-03-17T12:52:51;8.37;;;2.40;;
21697;SDS011;11010;49.548;11.926;2024-03-17T12:55:21;7.67;;;2.27;;
21697;SDS011;11010;49.548;11.926;2024-03-17T12:58:07;9.30;;;2.60;;
21697;SDS011;11010;49.548;11.926;2024-03-17T13:03:29;8.50;;;2.50;;
21697;SDS011;11010;49.548;11.926;2024-03-17T13:06:03;7.97;;;2.67;;
21697;SDS011;11010;49.548;11.926;2024-03-17T13:08:33;7.13;;;2.37;;
21697;SDS011;11010;49.548;11.926;2024-03-17T13:10:59;7.57;;;2.40;;
21697;SDS011;11010;49.548;11.926;2024-03-17T13:13:26;7.63;;;2.50;;
21697;SDS011;11010;49.548;11.926;2024-03-17T13:15:52;6.90;;;1.90;;
21697;SDS011;11010;49.548;11.926;2024-03-17T13:18:19;7.10;;;2.33;;
21697;SDS011;11010;49.548;11.926;2024-03-17T13:20:45;8.70;;;2.40;;
21697;SDS011;11010;49.548;11.926;2024-03-17T13:23:12;7.80;;;2.30;;
21697;SDS011;11010;49.548;11.926;2024-03-17T13:25:39;7.43;;;2.27;;
21697;SDS011;11010;49.548;11.926;2024-03-17T13:28:09;5.97;;;2.00;;
21697;SDS011;11010;49.548;11.926;2024-03-17T13:30:35;10.53;;;2.47;;
21697;SDS011;11010;49.548;11.926;2024-03-17T13:33:02;8.53;;;2.27;;
21697;SDS011;11010;49.548;11.926;2024-03-17T13:35:39;10.03;;;2.53;;
21697;SDS011;11010;49.548;11.926;2024-03-17T13:38:07;7.13;;;2.20;;
21697;SDS011;11010;49.548;11.926;2024-03-17T13:40:34;7.93;;;2.50;;
21697;SDS011;11010;49.548;11.926;2024-03-17T13:43:01;7.80;;;2.50;;
21697;SDS011;11010;49.548;11.926;2024-03-17T13:45:29;8.30;;;2.30;;
21697;SDS011;11010;49.548;11.926;2024-03-17T13:48:03;7.00;;;1.80;;
21697;SDS011;11010;49.548;11.926;2024-03-17T13:50:31;8.50;;;2.20;;
21697;SDS011;11010;49.548;11.926;2024-03-17T13:52:57;9.30;;;2.13;;
21697;SDS011;11010;49.548;11.926;2024-03-17T13:55:24;39.03;;;13.30;;
21697;SDS011;11010;49.548;11.926;2024-03-17T13:57:54;78.17;;;24.47;;
21697;SDS011;11010;49.548;11.926;2024-03-17T14:00:22;18.87;;;6.00;;
21697;SDS011;11010;49.548;11.926;2024-03-17T14:02:50;13.47;;;4.00;;
21697;SDS011;11010;49.548;11.926;2024-03-17T14:05:19;8.63;;;2.50;;
21697;SDS011;11010;49.548;11.926;2024-03-17T14:07:47;8.40;;;2.23;;
21697;SDS011;11010;49.548;11.926;2024-03-17T14:10:18;8.00;;;2.37;;
21697;SDS011;11010;49.548;11.926;2024-03-17T14:12:45;7.50;;;2.30;;
21697;SDS011;11010;49.548;11.926;2024-03-17T14:15:13;7.97;;;2.40;;
21697;SDS011;11010;49.548;11.926;2024-03-17T14:17:41;7.80;;;2.43;;
21697;SDS011;11010;49.548;11.926;2024-03-17T14:20:11;7.77;;;2.37;;
21697;SDS011;11010;49.548;11.926;2024-03-17T14:22:42;8.03;;;2.33;;
21697;SDS011;11010;49.548;11.926;2024-03-17T14:25:10;7.57;;;2.30;;
21697;SDS011;11010;49.548;11.926;2024-03-17T14:27:40;7.10;;;2.20;;
21697;SDS011;11010;49.548;11.926;2024-03-17T14:30:06;8.17;;;2.20;;
21697;SDS011;11010;49.548;11.926;2024-03-17T14:32:33;7.73;;;2.40;;
21697;SDS011;11010;49.548;11.926;2024-03-17T14:35:00;8.87;;;2.47;;
21697;SDS011;11010;49.548;11.926;2024-03-17T14:37:26;8.47;;;2.40;;
21697;SDS011;11010;49.548;11.926;2024-03-17T14:39:53;8.10;;;2.37;;
21697;SDS011;11010;49.548;11.926;2024-03-17T14:42:20;7.23;;;2.00;;
21697;SDS011;11010;49.548;11.926;2024-03-17T14:44:46;7.27;;;2.00;;
21697;SDS011;11010;49.548;11.926;2024-03-17T14:47:15;7.30;;;2.00;;
21697;SDS011;11010;49.548;11.926;2024-03-17T14:49:41;6.73;;;1.90;;
21697;SDS011;11010;49.548;11.926;2024-03-17T14:52:08;7.70;;;1.57;;
21697;SDS011;11010;49.548;11.926;2024-03-17T14:54:35;6.47;;;1.70;;
21697;SDS011;11010;49.548;11.926;2024-03-17T14:57:01;7.40;;;1.90;;
21697;SDS011;11010;49.548;11.926;2024-03-17T14:59:27;6.73;;;2.00;;
21697;SDS011;11010;49.548;11.926;2024-03-17T15:01:54;7.40;;;2.10;;
21697;SDS011;11010;49.548;11.926;2024-03-17T15:04:21;5.40;;;1.50;;
21697;SDS011;11010;49.548;11.926;2024-03-17T15:06:47;7.33;;;1.90;;
21697;SDS011;11010;49.548;11.926;2024-03-17T15:09:13;6.20;;;1.70;;
21697;SDS011;11010;49.548;11.926;2024-03-17T15:11:47;7.40;;;2.00;;
21697;SDS011;11010;49.548;11.926;2024-03-17T15:14:13;7.53;;;2.10;;
21697;SDS011;11010;49.548;11.926;2024-03-17T15:16:39;6.90;;;1.87;;
21697;SDS011;11010;49.548;11.926;2024-03-17T15:19:06;7.00;;;1.73;;
21697;SDS011;11010;49.548;11.926;2024-03-17T15:21:32;6.73;;;2.00;;